sensor_id;sensor_type;location;lat;lon;timestamp;temperature;humidity
5899;DHT22;2975;50.956;6.962;2023-03-05T00:01:41;5.60;99.90
5899;DHT22;2975;50.956;6.962;2023-03-05T00:04:11;5.60;99.90
5899;DHT22;2975;50.956;6.962;2023-03-05T00:06:37;5.50;99.90
5899;DHT22;2975;50.956;6.962;2023-03-05T00:09:04;5.50;99.90
5899;DHT22;2975;50.956;6.962;2023-03-05T00:11:30;5.50;99.90
5899;DHT22;2975;50.956;6.962;2023-03-05T00:13:57;5.50;99.90
5899;DHT22;2975;50.956;6.962;2023-03-05T00:16:23;5.40;99.90
5899;DHT22;2975;50.956;6.962;2023-03-05T00:18:51;5.40;99.90
5899;DHT22;2975;50.956;6.962;2023-03-05T00:23:54;5.40;99.90
5899;DHT22;2975;50.956;6.962;2023-03-05T00:26:22;5.40;99.90
5899;DHT22;2975;50.956;6.962;2023-03-05T00:28:49;5.40;99.90
5899;DHT22;2975;50.956;6.962;2023-03-05T00:31:20;5.40;99.90
5899;DHT22;2975;50.956;6.962;2023-03-05T00:33:54;5.40;99.90
5899;DHT22;2975;50.956;6.962;2023-03-05T00:36:20;5.30;99.90
5899;DHT22;2975;50.956;6.962;2023-03-05T00:38:46;5.30;99.90
5899;DHT22;2975;50.956;6.962;2023-03-05T00:41:11;5.30;99.90
5899;DHT22;2975;50.956;6.962;2023-03-05T00:43:37;5.30;99.90
5899;DHT22;2975;50.956;6.962;2023-03-05T00:46:03;5.30;99.90
5899;DHT22;2975;50.956;6.962;2023-03-05T00:48:28;5.20;99.90
5899;DHT22;2975;50.956;6.962;2023-03-05T00:50:54;5.30;99.90
5899;DHT22;2975;50.956;6.962;2023-03-05T00:53:20;5.20;99.90
5899;DHT22;2975;50.956;6.962;2023-03-05T00:55:45;5.20;99.90
5899;DHT22;2975;50.956;6.962;2023-03-05T00:58:11;5.30;99.90
5899;DHT22;2975;50.956;6.962;2023-03-05T01:00:37;5.30;99.90
5899;DHT22;2975;50.956;6.962;2023-03-05T01:03:02;5.30;99.90
5899;DHT22;2975;50.956;6.962;2023-03-05T01:05:28;5.30;99.90
5899;DHT22;2975;50.956;6.962;2023-03-05T01:07:55;5.30;99.90
5899;DHT22;2975;50.956;6.962;2023-03-05T01:10:21;5.20;99.90
5899;DHT22;2975;50.956;6.962;2023-03-05T01:12:48;5.20;99.90
5899;DHT22;2975;50.956;6.962;2023-03-05T01:15:14;5.30;99.90
5899;DHT22;2975;50.956;6.962;2023-03-05T01:17:39;5.20;99.90
5899;DHT22;2975;50.956;6.962;2023-03-05T01:20:06;5.20;99.90
5899;DHT22;2975;50.956;6.962;2023-03-05T01:22:32;5.20;99.90
5899;DHT22;2975;50.956;6.962;2023-03-05T01:24:59;5.20;99.90
5899;DHT22;2975;50.956;6.962;2023-03-05T01:27:24;5.20;99.90
5899;DHT22;2975;50.956;6.962;2023-03-05T01:29:50;5.10;99.90
5899;DHT22;2975;50.956;6.962;2023-03-05T01:32:15;5.10;99.90
5899;DHT22;2975;50.956;6.962;2023-03-05T01:34:41;5.10;99.90
5899;DHT22;2975;50.956;6.962;2023-03-05T01:37:07;5.10;99.90
5899;DHT22;2975;50.956;6.962;2023-03-05T01:39:33;5.10;99.90
5899;DHT22;2975;50.956;6.962;2023-03-05T01:42:00;5.10;99.90
5899;DHT22;2975;50.956;6.962;2023-03-05T01:44:28;5.10;99.90
5899;DHT22;2975;50.956;6.962;2023-03-05T01:46:54;5.10;99.90
5899;DHT22;2975;50.956;6.962;2023-03-05T01:52:11;5.10;99.90
5899;DHT22;2975;50.956;6.962;2023-03-05T01:55:11;5.10;99.90
5899;DHT22;2975;50.956;6.962;2023-03-05T01:57:41;5.10;99.90
5899;DHT22;2975;50.956;6.962;2023-03-05T02:00:17;5.10;99.90
5899;DHT22;2975;50.956;6.962;2023-03-05T02:02:46;5.00;99.90
5899;DHT22;2975;50.956;6.962;2023-03-05T02:05:17;5.10;99.90
5899;DHT22;2975;50.956;6.962;2023-03-05T02:07:43;5.00;99.90
5899;DHT22;2975;50.956;6.962;2023-03-05T02:10:21;5.00;99.90
5899;DHT22;2975;50.956;6.962;2023-03-05T02:12:48;5.10;99.90
5899;DHT22;2975;50.956;6.962;2023-03-05T02:15:15;5.10;99.90
5899;DHT22;2975;50.956;6.962;2023-03-05T02:17:41;5.10;99.90
5899;DHT22;2975;50.956;6.962;2023-03-05T02:20:30;5.10;99.90
5899;DHT22;2975;50.956;6.962;2023-03-05T02:22:56;5.00;99.90
5899;DHT22;2975;50.956;6.962;2023-03-05T02:25:25;5.00;99.90
5899;DHT22;2975;50.956;6.962;2023-03-05T02:28:05;5.00;99.90
5899;DHT22;2975;50.956;6.962;2023-03-05T02:30:31;4.90;99.90
5899;DHT22;2975;50.956;6.962;2023-03-05T02:32:57;4.90;99.90
5899;DHT22;2975;50.956;6.962;2023-03-05T02:35:22;5.00;99.90
5899;DHT22;2975;50.956;6.962;2023-03-05T02:37:49;5.00;99.90
5899;DHT22;2975;50.956;6.962;2023-03-05T02:40:15;5.10;99.90
5899;DHT22;2975;50.956;6.962;2023-03-05T02:42:40;5.10;99.90
5899;DHT22;2975;50.956;6.962;2023-03-05T02:45:07;5.10;99.90
5899;DHT22;2975;50.956;6.962;2023-03-05T02:47:33;5.00;99.90
5899;DHT22;2975;50.956;6.962;2023-03-05T02:49:59;5.00;99.90
5899;DHT22;2975;50.956;6.962;2023-03-05T02:52:25;4.90;99.90
5899;DHT22;2975;50.956;6.962;2023-03-05T02:54:52;4.90;99.90
5899;DHT22;2975;50.956;6.962;2023-03-05T02:57:18;4.90;99.90
5899;DHT22;2975;50.956;6.962;2023-03-05T02:59:44;5.00;99.90
5899;DHT22;2975;50.956;6.962;2023-03-05T03:02:10;5.00;99.90
5899;DHT22;2975;50.956;6.962;2023-03-05T03:04:36;5.00;99.90
5899;DHT22;2975;50.956;6.962;2023-03-05T03:07:01;4.90;99.90
5899;DHT22;2975;50.956;6.962;2023-03-05T03:09:27;4.90;99.90
5899;DHT22;2975;50.956;6.962;2023-03-05T03:11:53;4.90;99.90
5899;DHT22;2975;50.956;6.962;2023-03-05T03:14:19;4.90;99.90
5899;DHT22;2975;50.956;6.962;2023-03-05T03:16:44;4.90;99.90
5899;DHT22;2975;50.956;6.962;2023-03-05T03:19:10;4.90;99.90
5899;DHT22;2975;50.956;6.962;2023-03-05T03:21:35;4.90;99.90
5899;DHT22;2975;50.956;6.962;2023-03-05T03:24:01;4.90;99.90
5899;DHT22;2975;50.956;6.962;2023-03-05T03:26:27;4.90;99.90
5899;DHT22;2975;50.956;6.962;2023-03-05T03:28:53;4.90;99.90
5899;DHT22;2975;50.956;6.962;2023-03-05T03:31:18;4.90;99.90
5899;DHT22;2975;50.956;6.962;2023-03-05T03:33:44;4.90;99.90
5899;DHT22;2975;50.956;6.962;2023-03-05T03:36:10;4.80;99.90
5899;DHT22;2975;50.956;6.962;2023-03-05T03:38:36;4.80;99.90
5899;DHT22;2975;50.956;6.962;2023-03-05T03:41:01;4.90;99.90
5899;DHT22;2975;50.956;6.962;2023-03-05T03:43:29;4.80;99.90
5899;DHT22;2975;50.956;6.962;2023-03-05T03:45:55;4.80;99.90
5899;DHT22;2975;50.956;6.962;2023-03-05T03:48:20;4.80;99.90
5899;DHT22;2975;50.956;6.962;2023-03-05T03:50:46;4.80;99.90
5899;DHT22;2975;50.956;6.962;2023-03-05T03:53:11;4.80;99.90
5899;DHT22;2975;50.956;6.962;2023-03-05T03:55:39;4.80;99.90
5899;DHT22;2975;50.956;6.962;2023-03-05T03:58:07;4.80;99.90
5899;DHT22;2975;50.956;6.962;2023-03-05T04:00:33;4.80;99.90
5899;DHT22;2975;50.956;6.962;2023-03-05T04:03:00;4.80;99.90
5899;DHT22;2975;50.956;6.962;2023-03-05T04:05:26;4.80;99.90
5899;DHT22;2975;50.956;6.962;2023-03-05T04:07:52;4.80;99.90
5899;DHT22;2975;50.956;6.962;2023-03-05T04:10:18;4.80;99.90
5899;DHT22;2975;50.956;6.962;2023-03-05T04:12:43;4.80;99.90
5899;DHT22;2975;50.956;6.962;2023-03-05T04:15:11;4.90;99.90
5899;DHT22;2975;50.956;6.962;2023-03-05T04:17:37;4.90;99.90
5899;DHT22;2975;50.956;6.962;2023-03-05T04:20:04;4.90;99.90
5899;DHT22;2975;50.956;6.962;2023-03-05T04:22:30;4.90;99.90
5899;DHT22;2975;50.956;6.962;2023-03-05T04:24:55;4.90;99.90
5899;DHT22;2975;50.956;6.962;2023-03-05T04:27:21;4.90;99.90
5899;DHT22;2975;50.956;6.962;2023-03-05T04:29:46;4.90;99.90
5899;DHT22;2975;50.956;6.962;2023-03-05T04:32:12;4.80;99.90
5899;DHT22;2975;50.956;6.962;2023-03-05T04:34:38;4.80;99.90
5899;DHT22;2975;50.956;6.962;2023-03-05T04:37:03;4.80;99.90
5899;DHT22;2975;50.956;6.962;2023-03-05T04:39:29;4.80;99.90
5899;DHT22;2975;50.956;6.962;2023-03-05T04:41:55;4.80;99.90
5899;DHT22;2975;50.956;6.962;2023-03-05T04:44:20;4.80;99.90
5899;DHT22;2975;50.956;6.962;2023-03-05T04:46:48;4.80;99.90
5899;DHT22;2975;50.956;6.962;2023-03-05T04:49:13;4.70;99.90
5899;DHT22;2975;50.956;6.962;2023-03-05T04:51:40;4.70;99.90
5899;DHT22;2975;50.956;6.962;2023-03-05T04:54:06;4.70;99.90
5899;DHT22;2975;50.956;6.962;2023-03-05T04:56:31;4.70;99.90
5899;DHT22;2975;50.956;6.962;2023-03-05T04:58:57;4.70;99.90
5899;DHT22;2975;50.956;6.962;2023-03-05T05:01:23;4.70;99.90
5899;DHT22;2975;50.956;6.962;2023-03-05T05:03:49;4.70;99.90
5899;DHT22;2975;50.956;6.962;2023-03-05T05:06:14;4.60;99.90
5899;DHT22;2975;50.956;6.962;2023-03-05T05:08:41;4.70;99.90
5899;DHT22;2975;50.956;6.962;2023-03-05T05:11:11;4.60;99.90
5899;DHT22;2975;50.956;6.962;2023-03-05T05:13:38;4.60;99.90
5899;DHT22;2975;50.956;6.962;2023-03-05T05:16:07;4.60;99.90
5899;DHT22;2975;50.956;6.962;2023-03-05T05:18:33;4.60;99.90
5899;DHT22;2975;50.956;6.962;2023-03-05T05:20:59;4.60;99.90
5899;DHT22;2975;50.956;6.962;2023-03-05T05:23:25;4.60;99.90
5899;DHT22;2975;50.956;6.962;2023-03-05T05:26:01;4.60;99.90
5899;DHT22;2975;50.956;6.962;2023-03-05T05:28:28;4.60;99.90
5899;DHT22;2975;50.956;6.962;2023-03-05T05:30:54;4.60;99.90
5899;DHT22;2975;50.956;6.962;2023-03-05T05:33:20;4.60;99.90
5899;DHT22;2975;50.956;6.962;2023-03-05T05:35:46;4.60;99.90
5899;DHT22;2975;50.956;6.962;2023-03-05T05:38:11;4.60;99.90
5899;DHT22;2975;50.956;6.962;2023-03-05T05:40:37;4.60;99.90
5899;DHT22;2975;50.956;6.962;2023-03-05T05:43:03;4.50;99.90
5899;DHT22;2975;50.956;6.962;2023-03-05T05:45:28;4.50;99.90
5899;DHT22;2975;50.956;6.962;2023-03-05T05:47:54;4.50;99.90
5899;DHT22;2975;50.956;6.962;2023-03-05T05:50:19;4.50;99.90
5899;DHT22;2975;50.956;6.962;2023-03-05T05:52:45;4.50;99.90
5899;DHT22;2975;50.956;6.962;2023-03-05T05:55:11;4.50;99.90
5899;DHT22;2975;50.956;6.962;2023-03-05T05:57:37;4.60;99.90
5899;DHT22;2975;50.956;6.962;2023-03-05T06:00:05;4.60;99.90
5899;DHT22;2975;50.956;6.962;2023-03-05T06:02:31;4.60;99.90
5899;DHT22;2975;50.956;6.962;2023-03-05T06:04:57;4.60;99.90
5899;DHT22;2975;50.956;6.962;2023-03-05T06:07:22;4.60;99.90
5899;DHT22;2975;50.956;6.962;2023-03-05T06:09:48;4.60;99.90
5899;DHT22;2975;50.956;6.962;2023-03-05T06:12:13;4.70;99.90
5899;DHT22;2975;50.956;6.962;2023-03-05T06:14:39;4.70;99.90
5899;DHT22;2975;50.956;6.962;2023-03-05T06:17:05;4.60;99.90
5899;DHT22;2975;50.956;6.962;2023-03-05T06:19:31;4.60;99.90
5899;DHT22;2975;50.956;6.962;2023-03-05T06:21:56;4.70;99.90
5899;DHT22;2975;50.956;6.962;2023-03-05T06:24:22;4.70;99.90
5899;DHT22;2975;50.956;6.962;2023-03-05T06:26:48;4.70;99.90
5899;DHT22;2975;50.956;6.962;2023-03-05T06:29:14;4.70;99.90
5899;DHT22;2975;50.956;6.962;2023-03-05T06:31:40;4.80;99.90
5899;DHT22;2975;50.956;6.962;2023-03-05T06:34:05;4.80;99.90
5899;DHT22;2975;50.956;6.962;2023-03-05T06:36:31;4.80;99.90
5899;DHT22;2975;50.956;6.962;2023-03-05T06:38:57;4.80;99.90
5899;DHT22;2975;50.956;6.962;2023-03-05T06:41:28;4.80;99.90
5899;DHT22;2975;50.956;6.962;2023-03-05T06:43:54;4.80;99.90
5899;DHT22;2975;50.956;6.962;2023-03-05T06:46:23;4.90;99.90
5899;DHT22;2975;50.956;6.962;2023-03-05T06:48:49;4.90;99.90
5899;DHT22;2975;50.956;6.962;2023-03-05T06:51:18;4.90;99.90
5899;DHT22;2975;50.956;6.962;2023-03-05T06:53:44;4.90;99.90
5899;DHT22;2975;50.956;6.962;2023-03-05T06:56:11;5.00;99.90
5899;DHT22;2975;50.956;6.962;2023-03-05T06:58:39;5.00;99.90
5899;DHT22;2975;50.956;6.962;2023-03-05T07:01:05;5.10;99.90
5899;DHT22;2975;50.956;6.962;2023-03-05T07:03:34;5.20;99.90
5899;DHT22;2975;50.956;6.962;2023-03-05T07:06:09;5.20;99.90
5899;DHT22;2975;50.956;6.962;2023-03-05T07:08:36;5.20;99.90
5899;DHT22;2975;50.956;6.962;2023-03-05T07:11:02;5.30;99.90
5899;DHT22;2975;50.956;6.962;2023-03-05T07:13:28;5.30;99.90
5899;DHT22;2975;50.956;6.962;2023-03-05T07:15:54;5.40;99.90
5899;DHT22;2975;50.956;6.962;2023-03-05T07:18:20;5.50;99.90
5899;DHT22;2975;50.956;6.962;2023-03-05T07:20:46;5.50;99.90
5899;DHT22;2975;50.956;6.962;2023-03-05T07:23:11;5.50;99.90
5899;DHT22;2975;50.956;6.962;2023-03-05T07:25:38;5.60;99.90
5899;DHT22;2975;50.956;6.962;2023-03-05T07:28:04;5.60;99.90
5899;DHT22;2975;50.956;6.962;2023-03-05T07:30:32;5.60;99.90
5899;DHT22;2975;50.956;6.962;2023-03-05T07:32:58;5.60;99.90
5899;DHT22;2975;50.956;6.962;2023-03-05T07:35:23;5.70;99.90
5899;DHT22;2975;50.956;6.962;2023-03-05T07:37:49;5.90;99.90
5899;DHT22;2975;50.956;6.962;2023-03-05T07:40:15;5.90;99.90
5899;DHT22;2975;50.956;6.962;2023-03-05T07:42:41;5.90;99.90
5899;DHT22;2975;50.956;6.962;2023-03-05T07:45:07;5.80;99.90
5899;DHT22;2975;50.956;6.962;2023-03-05T07:47:33;5.80;99.90
5899;DHT22;2975;50.956;6.962;2023-03-05T07:49:59;5.80;99.90
5899;DHT22;2975;50.956;6.962;2023-03-05T07:52:25;5.80;99.90
5899;DHT22;2975;50.956;6.962;2023-03-05T07:54:50;5.80;99.90
5899;DHT22;2975;50.956;6.962;2023-03-05T07:57:16;5.80;99.90
5899;DHT22;2975;50.956;6.962;2023-03-05T07:59:42;5.70;99.90
5899;DHT22;2975;50.956;6.962;2023-03-05T08:02:13;5.70;99.90
5899;DHT22;2975;50.956;6.962;2023-03-05T08:04:39;5.70;99.90
5899;DHT22;2975;50.956;6.962;2023-03-05T08:07:06;5.80;99.90
5899;DHT22;2975;50.956;6.962;2023-03-05T08:09:32;5.80;99.90
5899;DHT22;2975;50.956;6.962;2023-03-05T08:11:58;5.80;99.90
5899;DHT22;2975;50.956;6.962;2023-03-05T08:14:24;5.70;99.90
5899;DHT22;2975;50.956;6.962;2023-03-05T08:16:49;5.80;99.90
5899;DHT22;2975;50.956;6.962;2023-03-05T08:19:17;5.80;99.90
5899;DHT22;2975;50.956;6.962;2023-03-05T08:21:44;5.80;99.90
5899;DHT22;2975;50.956;6.962;2023-03-05T08:24:10;5.80;99.90
5899;DHT22;2975;50.956;6.962;2023-03-05T08:26:37;5.80;99.90
5899;DHT22;2975;50.956;6.962;2023-03-05T08:29:03;5.80;99.90
5899;DHT22;2975;50.956;6.962;2023-03-05T08:31:29;5.80;99.90
5899;DHT22;2975;50.956;6.962;2023-03-05T08:33:57;5.80;99.90
5899;DHT22;2975;50.956;6.962;2023-03-05T08:36:23;5.70;99.90
5899;DHT22;2975;50.956;6.962;2023-03-05T08:38:49;5.70;99.90
5899;DHT22;2975;50.956;6.962;2023-03-05T08:41:16;5.70;99.90
5899;DHT22;2975;50.956;6.962;2023-03-05T08:43:42;5.80;99.90
5899;DHT22;2975;50.956;6.962;2023-03-05T08:46:12;5.90;99.90
5899;DHT22;2975;50.956;6.962;2023-03-05T08:48:38;6.00;99.90
5899;DHT22;2975;50.956;6.962;2023-03-05T08:51:06;6.00;99.90
5899;DHT22;2975;50.956;6.962;2023-03-05T08:53:32;6.10;99.90
5899;DHT22;2975;50.956;6.962;2023-03-05T08:55:58;6.10;99.90
5899;DHT22;2975;50.956;6.962;2023-03-05T08:58:24;6.20;99.90
5899;DHT22;2975;50.956;6.962;2023-03-05T09:00:51;6.10;99.90
5899;DHT22;2975;50.956;6.962;2023-03-05T09:03:17;6.10;99.90
5899;DHT22;2975;50.956;6.962;2023-03-05T09:05:42;6.10;99.90
5899;DHT22;2975;50.956;6.962;2023-03-05T09:08:08;6.20;99.90
5899;DHT22;2975;50.956;6.962;2023-03-05T09:10:34;6.30;99.90
5899;DHT22;2975;50.956;6.962;2023-03-05T09:13:00;6.30;99.90
5899;DHT22;2975;50.956;6.962;2023-03-05T09:15:25;6.40;99.90
5899;DHT22;2975;50.956;6.962;2023-03-05T09:17:51;6.50;99.90
5899;DHT22;2975;50.956;6.962;2023-03-05T09:20:18;6.60;99.90
5899;DHT22;2975;50.956;6.962;2023-03-05T09:22:44;6.70;99.90
5899;DHT22;2975;50.956;6.962;2023-03-05T09:25:11;6.70;99.90
5899;DHT22;2975;50.956;6.962;2023-03-05T09:27:37;6.70;99.90
5899;DHT22;2975;50.956;6.962;2023-03-05T09:30:04;6.80;99.90
5899;DHT22;2975;50.956;6.962;2023-03-05T09:32:31;6.90;99.90
5899;DHT22;2975;50.956;6.962;2023-03-05T09:34:57;7.00;99.90
5899;DHT22;2975;50.956;6.962;2023-03-05T09:37:24;7.10;99.90
5899;DHT22;2975;50.956;6.962;2023-03-05T09:39:50;7.40;99.90
5899;DHT22;2975;50.956;6.962;2023-03-05T09:45:25;7.70;99.90
5899;DHT22;2975;50.956;6.962;2023-03-05T09:48:24;7.60;99.90
5899;DHT22;2975;50.956;6.962;2023-03-05T09:50:52;7.70;99.90
5899;DHT22;2975;50.956;6.962;2023-03-05T09:56:11;7.60;99.90
5899;DHT22;2975;50.956;6.962;2023-03-05T09:58:50;7.50;99.90
5899;DHT22;2975;50.956;6.962;2023-03-05T10:01:23;7.40;99.90
5899;DHT22;2975;50.956;6.962;2023-03-05T10:06:46;7.40;99.90
5899;DHT22;2975;50.956;6.962;2023-03-05T10:10:03;7.10;99.90
5899;DHT22;2975;50.956;6.962;2023-03-05T10:12:13;6.90;99.90
5899;DHT22;2975;50.956;6.962;2023-03-05T10:14:40;6.80;99.90
5899;DHT22;2975;50.956;6.962;2023-03-05T10:20:38;6.40;99.90
5899;DHT22;2975;50.956;6.962;2023-03-05T10:26:17;6.20;99.90
5899;DHT22;2975;50.956;6.962;2023-03-05T10:36:50;6.20;99.90
5899;DHT22;2975;50.956;6.962;2023-03-05T10:39:45;6.30;99.90
5899;DHT22;2975;50.956;6.962;2023-03-05T10:42:29;6.50;99.90
5899;DHT22;2975;50.956;6.962;2023-03-05T10:45:00;6.50;99.90
5899;DHT22;2975;50.956;6.962;2023-03-05T10:49:57;6.40;99.90
5899;DHT22;2975;50.956;6.962;2023-03-05T10:52:40;6.40;99.90
5899;DHT22;2975;50.956;6.962;2023-03-05T10:55:16;6.40;99.90
5899;DHT22;2975;50.956;6.962;2023-03-05T10:57:43;6.30;99.90
5899;DHT22;2975;50.956;6.962;2023-03-05T11:00:26;6.30;99.90
5899;DHT22;2975;50.956;6.962;2023-03-05T11:03:02;6.50;99.90
5899;DHT22;2975;50.956;6.962;2023-03-05T11:05:43;6.60;99.90
5899;DHT22;2975;50.956;6.962;2023-03-05T11:08:30;6.80;99.90
5899;DHT22;2975;50.956;6.962;2023-03-05T11:11:17;6.80;99.90
5899;DHT22;2975;50.956;6.962;2023-03-05T11:16:19;6.60;99.90
5899;DHT22;2975;50.956;6.962;2023-03-05T11:18:45;6.50;99.90
5899;DHT22;2975;50.956;6.962;2023-03-05T11:21:20;6.60;99.90
5899;DHT22;2975;50.956;6.962;2023-03-05T11:26:49;6.70;99.90
5899;DHT22;2975;50.956;6.962;2023-03-05T11:29:25;6.80;99.90
5899;DHT22;2975;50.956;6.962;2023-03-05T11:31:52;6.90;99.90
5899;DHT22;2975;50.956;6.962;2023-03-05T11:39:24;6.90;99.90
5899;DHT22;2975;50.956;6.962;2023-03-05T11:41:53;7.00;99.90
5899;DHT22;2975;50.956;6.962;2023-03-05T11:44:29;7.00;99.90
5899;DHT22;2975;50.956;6.962;2023-03-05T11:47:16;7.00;99.90
5899;DHT22;2975;50.956;6.962;2023-03-05T11:49:45;7.10;99.90
5899;DHT22;2975;50.956;6.962;2023-03-05T11:52:29;7.00;99.90
5899;DHT22;2975;50.956;6.962;2023-03-05T11:55:17;6.80;99.90
5899;DHT22;2975;50.956;6.962;2023-03-05T12:00:31;6.50;99.90
5899;DHT22;2975;50.956;6.962;2023-03-05T12:03:01;6.50;99.90
5899;DHT22;2975;50.956;6.962;2023-03-05T12:05:29;6.40;99.90
5899;DHT22;2975;50.956;6.962;2023-03-05T12:07:59;6.30;99.90
5899;DHT22;2975;50.956;6.962;2023-03-05T12:10:26;6.20;99.90
5899;DHT22;2975;50.956;6.962;2023-03-05T12:15:29;6.50;99.90
5899;DHT22;2975;50.956;6.962;2023-03-05T12:17:59;6.60;99.90
5899;DHT22;2975;50.956;6.962;2023-03-05T12:20:53;6.80;99.90
5899;DHT22;2975;50.956;6.962;2023-03-05T12:23:21;6.90;99.90
5899;DHT22;2975;50.956;6.962;2023-03-05T12:25:53;6.90;99.90
5899;DHT22;2975;50.956;6.962;2023-03-05T12:47:38;6.90;99.90
5899;DHT22;2975;50.956;6.962;2023-03-05T12:50:04;7.00;99.90
5899;DHT22;2975;50.956;6.962;2023-03-05T12:52:50;7.10;99.90
5899;DHT22;2975;50.956;6.962;2023-03-05T12:55:26;7.50;99.90
5899;DHT22;2975;50.956;6.962;2023-03-05T13:00:36;7.90;99.90
5899;DHT22;2975;50.956;6.962;2023-03-05T13:03:06;8.00;99.80
5899;DHT22;2975;50.956;6.962;2023-03-05T13:05:36;8.00;98.80
5899;DHT22;2975;50.956;6.962;2023-03-05T13:10:35;8.00;98.60
5899;DHT22;2975;50.956;6.962;2023-03-05T13:13:00;8.00;98.70
5899;DHT22;2975;50.956;6.962;2023-03-05T13:15:27;7.70;98.70
5899;DHT22;2975;50.956;6.962;2023-03-05T13:17:57;7.70;99.40
5899;DHT22;2975;50.956;6.962;2023-03-05T13:20:33;7.80;99.30
5899;DHT22;2975;50.956;6.962;2023-03-05T13:23:18;8.00;99.50
5899;DHT22;2975;50.956;6.962;2023-03-05T13:28:40;8.40;97.80
5899;DHT22;2975;50.956;6.962;2023-03-05T13:31:15;8.50;97.00
5899;DHT22;2975;50.956;6.962;2023-03-05T13:33:53;8.60;96.90
5899;DHT22;2975;50.956;6.962;2023-03-05T13:36:21;8.70;96.90
5899;DHT22;2975;50.956;6.962;2023-03-05T13:38:48;8.70;96.70
5899;DHT22;2975;50.956;6.962;2023-03-05T13:43:51;8.70;96.60
5899;DHT22;2975;50.956;6.962;2023-03-05T13:46:36;8.70;96.70
5899;DHT22;2975;50.956;6.962;2023-03-05T13:49:25;8.50;96.70
5899;DHT22;2975;50.956;6.962;2023-03-05T13:51:56;8.30;97.30
5899;DHT22;2975;50.956;6.962;2023-03-05T13:54:23;8.00;97.60
5899;DHT22;2975;50.956;6.962;2023-03-05T13:59:24;7.60;98.30
5899;DHT22;2975;50.956;6.962;2023-03-05T14:01:51;7.40;98.50
5899;DHT22;2975;50.956;6.962;2023-03-05T14:04:23;7.30;98.50
5899;DHT22;2975;50.956;6.962;2023-03-05T14:09:44;7.30;99.00
5899;DHT22;2975;50.956;6.962;2023-03-05T14:12:39;7.40;99.20
5899;DHT22;2975;50.956;6.962;2023-03-05T14:15:22;7.50;98.90
5899;DHT22;2975;50.956;6.962;2023-03-05T14:17:48;7.60;98.90
5899;DHT22;2975;50.956;6.962;2023-03-05T14:20:21;7.70;99.00
5899;DHT22;2975;50.956;6.962;2023-03-05T14:22:50;7.70;98.30
5899;DHT22;2975;50.956;6.962;2023-03-05T14:30:29;7.30;99.20
5899;DHT22;2975;50.956;6.962;2023-03-05T14:32:55;7.30;99.70
5899;DHT22;2975;50.956;6.962;2023-03-05T14:35:25;7.30;99.90
5899;DHT22;2975;50.956;6.962;2023-03-05T14:37:54;7.20;99.90
5899;DHT22;2975;50.956;6.962;2023-03-05T14:40:32;7.20;99.80
5899;DHT22;2975;50.956;6.962;2023-03-05T14:43:08;7.10;99.90
5899;DHT22;2975;50.956;6.962;2023-03-05T14:45:40;7.10;99.90
5899;DHT22;2975;50.956;6.962;2023-03-05T14:48:10;7.00;99.90
5899;DHT22;2975;50.956;6.962;2023-03-05T14:50:59;7.10;99.90
5899;DHT22;2975;50.956;6.962;2023-03-05T14:53:28;7.10;99.90
5899;DHT22;2975;50.956;6.962;2023-03-05T14:55:55;7.10;99.90
5899;DHT22;2975;50.956;6.962;2023-03-05T14:58:23;7.10;99.90
5899;DHT22;2975;50.956;6.962;2023-03-05T15:00:51;7.00;99.90
5899;DHT22;2975;50.956;6.962;2023-03-05T15:03:17;6.90;99.90
5899;DHT22;2975;50.956;6.962;2023-03-05T15:05:45;6.80;99.90
5899;DHT22;2975;50.956;6.962;2023-03-05T15:08:37;6.80;99.90
5899;DHT22;2975;50.956;6.962;2023-03-05T15:11:03;6.80;99.90
5899;DHT22;2975;50.956;6.962;2023-03-05T15:13:30;6.70;99.90
5899;DHT22;2975;50.956;6.962;2023-03-05T15:15:57;6.80;99.90
5899;DHT22;2975;50.956;6.962;2023-03-05T15:18:23;6.80;99.90
5899;DHT22;2975;50.956;6.962;2023-03-05T15:20:49;6.80;99.90
5899;DHT22;2975;50.956;6.962;2023-03-05T15:23:17;6.80;99.90
5899;DHT22;2975;50.956;6.962;2023-03-05T15:25:43;6.80;99.90
5899;DHT22;2975;50.956;6.962;2023-03-05T15:28:09;6.90;99.90
5899;DHT22;2975;50.956;6.962;2023-03-05T15:30:37;6.90;99.90
5899;DHT22;2975;50.956;6.962;2023-03-05T15:33:07;6.90;99.90
5899;DHT22;2975;50.956;6.962;2023-03-05T15:35:33;6.90;99.90
5899;DHT22;2975;50.956;6.962;2023-03-05T15:38:00;6.90;99.90
5899;DHT22;2975;50.956;6.962;2023-03-05T15:40:26;6.80;99.90
5899;DHT22;2975;50.956;6.962;2023-03-05T15:42:56;6.80;99.90
5899;DHT22;2975;50.956;6.962;2023-03-05T15:45:22;6.70;99.90
5899;DHT22;2975;50.956;6.962;2023-03-05T15:47:51;6.70;99.90
5899;DHT22;2975;50.956;6.962;2023-03-05T15:50:18;6.70;99.90
5899;DHT22;2975;50.956;6.962;2023-03-05T15:52:45;6.80;99.90
5899;DHT22;2975;50.956;6.962;2023-03-05T15:55:11;6.80;99.90
5899;DHT22;2975;50.956;6.962;2023-03-05T15:57:42;6.80;99.90
5899;DHT22;2975;50.956;6.962;2023-03-05T16:00:09;6.80;99.90
5899;DHT22;2975;50.956;6.962;2023-03-05T16:02:35;6.80;99.90
5899;DHT22;2975;50.956;6.962;2023-03-05T16:05:00;6.80;99.90
5899;DHT22;2975;50.956;6.962;2023-03-05T16:07:26;6.80;99.90
5899;DHT22;2975;50.956;6.962;2023-03-05T16:09:53;6.70;99.90
5899;DHT22;2975;50.956;6.962;2023-03-05T16:12:21;6.70;99.90
5899;DHT22;2975;50.956;6.962;2023-03-05T16:14:49;6.60;99.90
5899;DHT22;2975;50.956;6.962;2023-03-05T16:17:16;6.60;99.90
5899;DHT22;2975;50.956;6.962;2023-03-05T16:19:45;6.60;99.90
5899;DHT22;2975;50.956;6.962;2023-03-05T16:22:11;6.60;99.90
5899;DHT22;2975;50.956;6.962;2023-03-05T16:24:36;6.50;99.90
5899;DHT22;2975;50.956;6.962;2023-03-05T16:27:02;6.50;99.90
5899;DHT22;2975;50.956;6.962;2023-03-05T16:29:29;6.50;99.90
5899;DHT22;2975;50.956;6.962;2023-03-05T16:31:57;6.50;99.90
5899;DHT22;2975;50.956;6.962;2023-03-05T16:34:23;6.50;99.90
5899;DHT22;2975;50.956;6.962;2023-03-05T16:36:50;6.40;99.90
5899;DHT22;2975;50.956;6.962;2023-03-05T16:39:18;6.40;99.90
5899;DHT22;2975;50.956;6.962;2023-03-05T16:41:44;6.40;99.90
5899;DHT22;2975;50.956;6.962;2023-03-05T16:44:10;6.40;99.90
5899;DHT22;2975;50.956;6.962;2023-03-05T16:46:36;6.40;99.90
5899;DHT22;2975;50.956;6.962;2023-03-05T16:49:02;6.30;99.90
5899;DHT22;2975;50.956;6.962;2023-03-05T16:51:28;6.30;99.90
5899;DHT22;2975;50.956;6.962;2023-03-05T16:53:54;6.30;99.90
5899;DHT22;2975;50.956;6.962;2023-03-05T16:56:20;6.30;99.90
5899;DHT22;2975;50.956;6.962;2023-03-05T16:58:45;6.30;99.90
5899;DHT22;2975;50.956;6.962;2023-03-05T17:01:13;6.20;99.90
5899;DHT22;2975;50.956;6.962;2023-03-05T17:03:39;6.20;99.90
5899;DHT22;2975;50.956;6.962;2023-03-05T17:06:18;6.20;99.90
5899;DHT22;2975;50.956;6.962;2023-03-05T17:08:44;6.20;99.90
5899;DHT22;2975;50.956;6.962;2023-03-05T17:11:11;6.20;99.90
5899;DHT22;2975;50.956;6.962;2023-03-05T17:13:37;6.10;99.90
5899;DHT22;2975;50.956;6.962;2023-03-05T17:16:04;6.10;99.90
5899;DHT22;2975;50.956;6.962;2023-03-05T17:18:30;6.10;99.90
5899;DHT22;2975;50.956;6.962;2023-03-05T17:20:56;6.10;99.90
5899;DHT22;2975;50.956;6.962;2023-03-05T17:23:22;6.10;99.90
5899;DHT22;2975;50.956;6.962;2023-03-05T17:25:48;6.10;99.90
5899;DHT22;2975;50.956;6.962;2023-03-05T17:28:14;6.00;99.90
5899;DHT22;2975;50.956;6.962;2023-03-05T17:30:39;6.00;99.90
5899;DHT22;2975;50.956;6.962;2023-03-05T17:33:05;6.00;99.90
5899;DHT22;2975;50.956;6.962;2023-03-05T17:35:31;5.90;99.90
5899;DHT22;2975;50.956;6.962;2023-03-05T17:37:57;5.90;99.90
5899;DHT22;2975;50.956;6.962;2023-03-05T17:40:23;5.90;99.90
5899;DHT22;2975;50.956;6.962;2023-03-05T17:42:49;5.90;99.90
5899;DHT22;2975;50.956;6.962;2023-03-05T17:45:15;5.80;99.90
5899;DHT22;2975;50.956;6.962;2023-03-05T17:47:41;5.80;99.90
5899;DHT22;2975;50.956;6.962;2023-03-05T17:50:09;5.80;99.90
5899;DHT22;2975;50.956;6.962;2023-03-05T17:52:35;5.80;99.90